sensor_id;sensor_type;location;lat;lon;timestamp;P1;durP1;ratioP1;P2;durP2;ratioP2
23519;SDS011;11936;50.820;4.336;2022-10-13T00:00:01;16.15;;;7.03;;
23519;SDS011;11936;50.820;4.336;2022-10-13T00:02:26;14.68;;;6.78;;
23519;SDS011;11936;50.820;4.336;2022-10-13T00:04:52;12.18;;;6.40;;
23519;SDS011;11936;50.820;4.336;2022-10-13T00:07:17;13.35;;;7.43;;
23519;SDS011;11936;50.820;4.336;2022-10-13T00:09:43;16.88;;;6.93;;
23519;SDS011;11936;50.820;4.336;2022-10-13T00:12:08;16.00;;;6.93;;
23519;SDS011;11936;50.820;4.336;2022-10-13T00:14:34;18.27;;;7.05;;
23519;SDS011;11936;50.820;4.336;2022-10-13T00:16:59;12.68;;;6.80;;
23519;SDS011;11936;50.820;4.336;2022-10-13T00:19:25;13.65;;;6.75;;
23519;SDS011;11936;50.820;4.336;2022-10-13T00:21:51;15.32;;;7.22;;
23519;SDS011;11936;50.820;4.336;2022-10-13T00:24:17;16.50;;;7.28;;
23519;SDS011;11936;50.820;4.336;2022-10-13T00:26:42;12.23;;;7.07;;
23519;SDS011;11936;50.820;4.336;2022-10-13T00:29:08;15.48;;;7.47;;
23519;SDS011;11936;50.820;4.336;2022-10-13T00:31:33;18.60;;;7.45;;
23519;SDS011;11936;50.820;4.336;2022-10-13T00:34:00;15.50;;;7.55;;
23519;SDS011;11936;50.820;4.336;2022-10-13T00:36:26;16.30;;;7.30;;
23519;SDS011;11936;50.820;4.336;2022-10-13T00:38:52;13.82;;;7.70;;
23519;SDS011;11936;50.820;4.336;2022-10-13T00:41:18;17.88;;;7.00;;
23519;SDS011;11936;50.820;4.336;2022-10-13T00:46:23;16.90;;;7.15;;
23519;SDS011;11936;50.820;4.336;2022-10-13T00:48:51;15.27;;;7.75;;
23519;SDS011;11936;50.820;4.336;2022-10-13T00:51:19;14.50;;;6.68;;
23519;SDS011;11936;50.820;4.336;2022-10-13T00:53:47;11.93;;;6.68;;
23519;SDS011;11936;50.820;4.336;2022-10-13T00:56:14;11.18;;;6.88;;
23519;SDS011;11936;50.820;4.336;2022-10-13T00:58:43;12.68;;;6.82;;
23519;SDS011;11936;50.820;4.336;2022-10-13T01:01:10;12.52;;;6.95;;
23519;SDS011;11936;50.820;4.336;2022-10-13T01:03:36;14.98;;;6.97;;
23519;SDS011;11936;50.820;4.336;2022-10-13T01:06:02;15.05;;;7.03;;
23519;SDS011;11936;50.820;4.336;2022-10-13T01:08:29;15.93;;;6.82;;
23519;SDS011;11936;50.820;4.336;2022-10-13T01:13:28;14.27;;;6.82;;
23519;SDS011;11936;50.820;4.336;2022-10-13T01:24:46;12.73;;;7.10;;
23519;SDS011;11936;50.820;4.336;2022-10-13T01:27:58;16.58;;;7.15;;
23519;SDS011;11936;50.820;4.336;2022-10-13T01:30:47;13.75;;;7.60;;
23519;SDS011;11936;50.820;4.336;2022-10-13T01:38:55;13.80;;;7.20;;
23519;SDS011;11936;50.820;4.336;2022-10-13T01:41:42;18.27;;;7.53;;
23519;SDS011;11936;50.820;4.336;2022-10-13T01:46:40;12.65;;;7.65;;
23519;SDS011;11936;50.820;4.336;2022-10-13T01:49:11;13.65;;;8.45;;
23519;SDS011;11936;50.820;4.336;2022-10-13T01:51:40;14.38;;;8.48;;
23519;SDS011;11936;50.820;4.336;2022-10-13T01:54:06;13.27;;;8.35;;
23519;SDS011;11936;50.820;4.336;2022-10-13T01:56:32;22.02;;;9.68;;
23519;SDS011;11936;50.820;4.336;2022-10-13T01:58:58;19.60;;;8.07;;
23519;SDS011;11936;50.820;4.336;2022-10-13T02:06:46;16.85;;;8.77;;
23519;SDS011;11936;50.820;4.336;2022-10-13T02:09:32;20.00;;;9.77;;
23519;SDS011;11936;50.820;4.336;2022-10-13T02:12:01;18.58;;;9.25;;
23519;SDS011;11936;50.820;4.336;2022-10-13T02:14:32;20.42;;;9.57;;
23519;SDS011;11936;50.820;4.336;2022-10-13T02:17:01;20.98;;;10.13;;
23519;SDS011;11936;50.820;4.336;2022-10-13T02:19:29;19.60;;;10.10;;
23519;SDS011;11936;50.820;4.336;2022-10-13T02:24:23;16.15;;;9.50;;
23519;SDS011;11936;50.820;4.336;2022-10-13T02:26:49;17.17;;;9.63;;
23519;SDS011;11936;50.820;4.336;2022-10-13T02:29:16;18.77;;;10.82;;
23519;SDS011;11936;50.820;4.336;2022-10-13T02:31:43;15.65;;;9.50;;
23519;SDS011;11936;50.820;4.336;2022-10-13T02:34:09;16.92;;;9.82;;
23519;SDS011;11936;50.820;4.336;2022-10-13T02:36:36;21.92;;;10.80;;
23519;SDS011;11936;50.820;4.336;2022-10-13T02:39:03;23.05;;;10.15;;
23519;SDS011;11936;50.820;4.336;2022-10-13T02:41:29;18.77;;;9.68;;
23519;SDS011;11936;50.820;4.336;2022-10-13T02:43:55;17.75;;;9.77;;
23519;SDS011;11936;50.820;4.336;2022-10-13T02:46:21;13.60;;;9.18;;
23519;SDS011;11936;50.820;4.336;2022-10-13T02:48:46;21.10;;;9.88;;
23519;SDS011;11936;50.820;4.336;2022-10-13T02:51:12;16.73;;;9.57;;
23519;SDS011;11936;50.820;4.336;2022-10-13T02:53:37;16.05;;;9.60;;
23519;SDS011;11936;50.820;4.336;2022-10-13T02:56:04;20.67;;;10.48;;
23519;SDS011;11936;50.820;4.336;2022-10-13T02:58:30;20.00;;;10.50;;
23519;SDS011;11936;50.820;4.336;2022-10-13T03:01:03;21.50;;;10.82;;
23519;SDS011;11936;50.820;4.336;2022-10-13T03:03:34;19.88;;;10.43;;
23519;SDS011;11936;50.820;4.336;2022-10-13T03:06:00;22.67;;;10.52;;
23519;SDS011;11936;50.820;4.336;2022-10-13T03:08:26;28.38;;;10.65;;
23519;SDS011;11936;50.820;4.336;2022-10-13T03:10:52;19.98;;;10.85;;
23519;SDS011;11936;50.820;4.336;2022-10-13T03:13:17;18.60;;;10.10;;
23519;SDS011;11936;50.820;4.336;2022-10-13T03:15:43;20.80;;;11.10;;
23519;SDS011;11936;50.820;4.336;2022-10-13T03:18:10;17.65;;;10.50;;
23519;SDS011;11936;50.820;4.336;2022-10-13T03:20:35;20.00;;;11.25;;
23519;SDS011;11936;50.820;4.336;2022-10-13T03:23:01;17.10;;;11.00;;
23519;SDS011;11936;50.820;4.336;2022-10-13T03:25:26;18.98;;;11.52;;
23519;SDS011;11936;50.820;4.336;2022-10-13T03:27:54;21.33;;;10.60;;
23519;SDS011;11936;50.820;4.336;2022-10-13T03:30:20;15.65;;;10.57;;
23519;SDS011;11936;50.820;4.336;2022-10-13T03:32:45;23.13;;;11.68;;
23519;SDS011;11936;50.820;4.336;2022-10-13T03:35:11;17.17;;;11.20;;
23519;SDS011;11936;50.820;4.336;2022-10-13T03:37:37;18.70;;;11.15;;
23519;SDS011;11936;50.820;4.336;2022-10-13T03:40:02;26.58;;;12.77;;
23519;SDS011;11936;50.820;4.336;2022-10-13T03:42:28;20.08;;;11.65;;
23519;SDS011;11936;50.820;4.336;2022-10-13T03:44:54;21.98;;;11.07;;
23519;SDS011;11936;50.820;4.336;2022-10-13T03:47:20;24.05;;;12.43;;
23519;SDS011;11936;50.820;4.336;2022-10-13T03:49:45;19.73;;;11.02;;
23519;SDS011;11936;50.820;4.336;2022-10-13T03:52:11;18.10;;;11.40;;
23519;SDS011;11936;50.820;4.336;2022-10-13T03:54:36;22.40;;;10.82;;
23519;SDS011;11936;50.820;4.336;2022-10-13T03:57:02;19.63;;;11.13;;
23519;SDS011;11936;50.820;4.336;2022-10-13T03:59:27;17.70;;;10.32;;
23519;SDS011;11936;50.820;4.336;2022-10-13T04:01:53;21.67;;;11.30;;
23519;SDS011;11936;50.820;4.336;2022-10-13T04:04:19;20.13;;;10.68;;
23519;SDS011;11936;50.820;4.336;2022-10-13T04:06:45;24.83;;;11.02;;
23519;SDS011;11936;50.820;4.336;2022-10-13T04:09:10;21.80;;;11.43;;
23519;SDS011;11936;50.820;4.336;2022-10-13T04:11:37;24.58;;;11.30;;
23519;SDS011;11936;50.820;4.336;2022-10-13T04:14:02;18.08;;;11.27;;
23519;SDS011;11936;50.820;4.336;2022-10-13T04:16:28;19.38;;;9.50;;
23519;SDS011;11936;50.820;4.336;2022-10-13T04:18:57;20.35;;;9.88;;
23519;SDS011;11936;50.820;4.336;2022-10-13T04:21:24;15.82;;;9.63;;
23519;SDS011;11936;50.820;4.336;2022-10-13T04:23:53;17.45;;;10.25;;
23519;SDS011;11936;50.820;4.336;2022-10-13T04:26:21;18.23;;;10.13;;
23519;SDS011;11936;50.820;4.336;2022-10-13T04:28:48;21.42;;;14.25;;
23519;SDS011;11936;50.820;4.336;2022-10-13T04:31:15;28.05;;;15.32;;
23519;SDS011;11936;50.820;4.336;2022-10-13T04:33:42;22.83;;;13.27;;
23519;SDS011;11936;50.820;4.336;2022-10-13T04:36:09;23.83;;;11.00;;
23519;SDS011;11936;50.820;4.336;2022-10-13T04:38:36;32.85;;;12.13;;
23519;SDS011;11936;50.820;4.336;2022-10-13T04:41:02;23.50;;;11.25;;
23519;SDS011;11936;50.820;4.336;2022-10-13T04:43:29;19.70;;;10.23;;
23519;SDS011;11936;50.820;4.336;2022-10-13T04:46:01;20.20;;;10.35;;
23519;SDS011;11936;50.820;4.336;2022-10-13T04:48:28;17.48;;;10.55;;
23519;SDS011;11936;50.820;4.336;2022-10-13T04:51:13;20.10;;;9.85;;
23519;SDS011;11936;50.820;4.336;2022-10-13T04:53:40;17.90;;;10.23;;
23519;SDS011;11936;50.820;4.336;2022-10-13T04:56:07;16.95;;;10.05;;
23519;SDS011;11936;50.820;4.336;2022-10-13T04:58:35;21.30;;;10.95;;
23519;SDS011;11936;50.820;4.336;2022-10-13T05:01:02;20.35;;;10.40;;
23519;SDS011;11936;50.820;4.336;2022-10-13T05:03:29;18.20;;;9.77;;
23519;SDS011;11936;50.820;4.336;2022-10-13T05:05:54;18.63;;;9.98;;
23519;SDS011;11936;50.820;4.336;2022-10-13T05:08:20;17.00;;;10.75;;
23519;SDS011;11936;50.820;4.336;2022-10-13T05:10:56;17.38;;;10.35;;
23519;SDS011;11936;50.820;4.336;2022-10-13T05:13:23;15.60;;;9.77;;
23519;SDS011;11936;50.820;4.336;2022-10-13T05:15:50;22.38;;;10.73;;
23519;SDS011;11936;50.820;4.336;2022-10-13T05:18:16;23.38;;;10.18;;
23519;SDS011;11936;50.820;4.336;2022-10-13T05:20:41;19.65;;;10.23;;
23519;SDS011;11936;50.820;4.336;2022-10-13T05:23:07;20.63;;;10.45;;
23519;SDS011;11936;50.820;4.336;2022-10-13T05:25:33;17.70;;;10.50;;
23519;SDS011;11936;50.820;4.336;2022-10-13T05:27:59;22.20;;;11.52;;
23519;SDS011;11936;50.820;4.336;2022-10-13T05:30:25;17.65;;;10.15;;
23519;SDS011;11936;50.820;4.336;2022-10-13T05:32:51;21.10;;;10.38;;
23519;SDS011;11936;50.820;4.336;2022-10-13T05:35:16;22.52;;;10.77;;
23519;SDS011;11936;50.820;4.336;2022-10-13T05:37:42;19.42;;;10.95;;
23519;SDS011;11936;50.820;4.336;2022-10-13T05:40:07;21.45;;;11.38;;
23519;SDS011;11936;50.820;4.336;2022-10-13T05:42:34;20.77;;;11.15;;
23519;SDS011;11936;50.820;4.336;2022-10-13T05:45:00;21.30;;;11.88;;
23519;SDS011;11936;50.820;4.336;2022-10-13T05:47:25;22.98;;;11.10;;
23519;SDS011;11936;50.820;4.336;2022-10-13T05:49:52;18.38;;;10.10;;
23519;SDS011;11936;50.820;4.336;2022-10-13T05:52:19;19.58;;;9.60;;
23519;SDS011;11936;50.820;4.336;2022-10-13T05:54:47;17.75;;;9.93;;
23519;SDS011;11936;50.820;4.336;2022-10-13T06:00:07;17.27;;;10.65;;
23519;SDS011;11936;50.820;4.336;2022-10-13T06:05:11;19.05;;;11.13;;
23519;SDS011;11936;50.820;4.336;2022-10-13T06:07:40;22.35;;;10.80;;
23519;SDS011;11936;50.820;4.336;2022-10-13T06:10:06;24.42;;;10.55;;
23519;SDS011;11936;50.820;4.336;2022-10-13T06:12:32;19.90;;;10.80;;
23519;SDS011;11936;50.820;4.336;2022-10-13T06:14:58;23.08;;;10.25;;
23519;SDS011;11936;50.820;4.336;2022-10-13T06:17:23;23.83;;;10.63;;
23519;SDS011;11936;50.820;4.336;2022-10-13T06:19:49;21.17;;;9.93;;
23519;SDS011;11936;50.820;4.336;2022-10-13T06:22:15;23.77;;;10.45;;
23519;SDS011;11936;50.820;4.336;2022-10-13T06:24:41;16.80;;;9.50;;
23519;SDS011;11936;50.820;4.336;2022-10-13T06:27:07;19.67;;;10.18;;
23519;SDS011;11936;50.820;4.336;2022-10-13T06:29:32;17.20;;;9.45;;
23519;SDS011;11936;50.820;4.336;2022-10-13T06:31:58;18.33;;;10.18;;
23519;SDS011;11936;50.820;4.336;2022-10-13T06:34:24;19.50;;;10.00;;
23519;SDS011;11936;50.820;4.336;2022-10-13T06:36:49;19.48;;;9.70;;
23519;SDS011;11936;50.820;4.336;2022-10-13T06:39:15;16.73;;;10.02;;
23519;SDS011;11936;50.820;4.336;2022-10-13T06:41:41;19.15;;;9.82;;
23519;SDS011;11936;50.820;4.336;2022-10-13T06:44:10;16.95;;;9.48;;
23519;SDS011;11936;50.820;4.336;2022-10-13T06:49:01;18.05;;;10.82;;
23519;SDS011;11936;50.820;4.336;2022-10-13T06:51:26;25.13;;;9.75;;
23519;SDS011;11936;50.820;4.336;2022-10-13T06:53:54;17.02;;;10.48;;
23519;SDS011;11936;50.820;4.336;2022-10-13T06:56:20;21.98;;;9.43;;
23519;SDS011;11936;50.820;4.336;2022-10-13T06:58:47;16.52;;;10.10;;
23519;SDS011;11936;50.820;4.336;2022-10-13T07:01:12;17.95;;;8.95;;
23519;SDS011;11936;50.820;4.336;2022-10-13T07:03:38;17.13;;;8.85;;
23519;SDS011;11936;50.820;4.336;2022-10-13T07:06:04;17.80;;;9.77;;
23519;SDS011;11936;50.820;4.336;2022-10-13T07:08:33;16.27;;;9.20;;
23519;SDS011;11936;50.820;4.336;2022-10-13T07:11:04;22.42;;;9.10;;
23519;SDS011;11936;50.820;4.336;2022-10-13T07:13:30;23.38;;;9.55;;
23519;SDS011;11936;50.820;4.336;2022-10-13T07:15:56;17.00;;;9.38;;
23519;SDS011;11936;50.820;4.336;2022-10-13T07:18:22;17.55;;;8.15;;
23519;SDS011;11936;50.820;4.336;2022-10-13T07:20:47;21.33;;;9.45;;
23519;SDS011;11936;50.820;4.336;2022-10-13T07:23:13;14.40;;;8.93;;
23519;SDS011;11936;50.820;4.336;2022-10-13T07:25:38;17.75;;;8.77;;
23519;SDS011;11936;50.820;4.336;2022-10-13T07:28:04;16.40;;;8.43;;
23519;SDS011;11936;50.820;4.336;2022-10-13T07:30:29;14.02;;;9.98;;
23519;SDS011;11936;50.820;4.336;2022-10-13T07:32:55;18.33;;;9.18;;
23519;SDS011;11936;50.820;4.336;2022-10-13T07:35:21;16.10;;;8.88;;
23519;SDS011;11936;50.820;4.336;2022-10-13T07:37:51;21.67;;;9.60;;
23519;SDS011;11936;50.820;4.336;2022-10-13T07:40:17;15.10;;;9.32;;
23519;SDS011;11936;50.820;4.336;2022-10-13T07:42:43;16.13;;;9.80;;
23519;SDS011;11936;50.820;4.336;2022-10-13T07:45:09;15.73;;;10.05;;
23519;SDS011;11936;50.820;4.336;2022-10-13T07:47:35;20.65;;;9.80;;
23519;SDS011;11936;50.820;4.336;2022-10-13T07:50:00;21.45;;;10.55;;
23519;SDS011;11936;50.820;4.336;2022-10-13T07:52:26;15.55;;;9.70;;
23519;SDS011;11936;50.820;4.336;2022-10-13T07:54:51;15.40;;;8.73;;
23519;SDS011;11936;50.820;4.336;2022-10-13T07:57:18;20.67;;;9.88;;
23519;SDS011;11936;50.820;4.336;2022-10-13T07:59:43;28.45;;;10.02;;
23519;SDS011;11936;50.820;4.336;2022-10-13T08:02:09;23.63;;;10.50;;
23519;SDS011;11936;50.820;4.336;2022-10-13T08:04:35;15.88;;;9.32;;
23519;SDS011;11936;50.820;4.336;2022-10-13T08:07:01;16.05;;;8.88;;
23519;SDS011;11936;50.820;4.336;2022-10-13T08:09:27;15.85;;;9.18;;
23519;SDS011;11936;50.820;4.336;2022-10-13T08:11:53;18.85;;;9.07;;
23519;SDS011;11936;50.820;4.336;2022-10-13T08:14:18;14.63;;;8.68;;
23519;SDS011;11936;50.820;4.336;2022-10-13T08:16:44;21.70;;;9.10;;
23519;SDS011;11936;50.820;4.336;2022-10-13T08:19:13;17.85;;;8.30;;
23519;SDS011;11936;50.820;4.336;2022-10-13T08:21:39;15.02;;;8.13;;
23519;SDS011;11936;50.820;4.336;2022-10-13T08:24:06;14.00;;;7.75;;
23519;SDS011;11936;50.820;4.336;2022-10-13T08:26:34;18.80;;;8.75;;
23519;SDS011;11936;50.820;4.336;2022-10-13T08:28:59;21.10;;;8.00;;
23519;SDS011;11936;50.820;4.336;2022-10-13T08:31:25;13.93;;;7.93;;
23519;SDS011;11936;50.820;4.336;2022-10-13T08:33:51;15.48;;;8.30;;
23519;SDS011;11936;50.820;4.336;2022-10-13T08:36:16;12.80;;;8.00;;
23519;SDS011;11936;50.820;4.336;2022-10-13T08:38:43;19.27;;;8.52;;
23519;SDS011;11936;50.820;4.336;2022-10-13T08:41:13;18.83;;;8.30;;
23519;SDS011;11936;50.820;4.336;2022-10-13T08:43:43;21.83;;;8.32;;
23519;SDS011;11936;50.820;4.336;2022-10-13T08:46:15;14.82;;;7.65;;
23519;SDS011;11936;50.820;4.336;2022-10-13T08:48:49;18.35;;;8.63;;
23519;SDS011;11936;50.820;4.336;2022-10-13T08:51:14;18.85;;;8.40;;
23519;SDS011;11936;50.820;4.336;2022-10-13T08:53:41;13.80;;;8.07;;
23519;SDS011;11936;50.820;4.336;2022-10-13T08:58:37;13.73;;;7.03;;
23519;SDS011;11936;50.820;4.336;2022-10-13T09:08:59;15.52;;;7.47;;
23519;SDS011;11936;50.820;4.336;2022-10-13T09:11:28;11.35;;;7.15;;
23519;SDS011;11936;50.820;4.336;2022-10-13T09:13:59;19.88;;;6.93;;
23519;SDS011;11936;50.820;4.336;2022-10-13T09:21:46;21.15;;;7.85;;
23519;SDS011;11936;50.820;4.336;2022-10-13T09:24:14;11.27;;;6.72;;
23519;SDS011;11936;50.820;4.336;2022-10-13T09:29:24;13.65;;;7.25;;
23519;SDS011;11936;50.820;4.336;2022-10-13T09:31:50;18.55;;;7.38;;
23519;SDS011;11936;50.820;4.336;2022-10-13T09:34:31;13.13;;;7.10;;
23519;SDS011;11936;50.820;4.336;2022-10-13T09:37:00;13.57;;;7.00;;
23519;SDS011;11936;50.820;4.336;2022-10-13T09:39:27;25.58;;;7.97;;
23519;SDS011;11936;50.820;4.336;2022-10-13T09:44:58;16.85;;;8.00;;
23519;SDS011;11936;50.820;4.336;2022-10-13T09:47:36;16.58;;;7.57;;
23519;SDS011;11936;50.820;4.336;2022-10-13T09:50:12;13.57;;;7.40;;
23519;SDS011;11936;50.820;4.336;2022-10-13T09:52:41;12.35;;;7.35;;
23519;SDS011;11936;50.820;4.336;2022-10-13T09:55:28;15.73;;;7.40;;
23519;SDS011;11936;50.820;4.336;2022-10-13T09:57:58;13.85;;;7.57;;
23519;SDS011;11936;50.820;4.336;2022-10-13T10:00:29;12.75;;;7.15;;
23519;SDS011;11936;50.820;4.336;2022-10-13T10:02:57;21.60;;;7.35;;
23519;SDS011;11936;50.820;4.336;2022-10-13T10:11:04;17.75;;;7.55;;
23519;SDS011;11936;50.820;4.336;2022-10-13T10:13:35;15.65;;;7.50;;
23519;SDS011;11936;50.820;4.336;2022-10-13T10:18:44;12.75;;;8.07;;
23519;SDS011;11936;50.820;4.336;2022-10-13T10:23:53;14.40;;;7.93;;
23519;SDS011;11936;50.820;4.336;2022-10-13T10:26:44;14.88;;;8.20;;
23519;SDS011;11936;50.820;4.336;2022-10-13T10:45:24;23.48;;;11.02;;
23519;SDS011;11936;50.820;4.336;2022-10-13T10:47:59;20.33;;;11.13;;
23519;SDS011;11936;50.820;4.336;2022-10-13T10:50:28;19.23;;;11.18;;
23519;SDS011;11936;50.820;4.336;2022-10-13T11:06:32;21.85;;;11.00;;
23519;SDS011;11936;50.820;4.336;2022-10-13T11:08:59;19.60;;;10.30;;
23519;SDS011;11936;50.820;4.336;2022-10-13T11:13:54;21.70;;;11.63;;
23519;SDS011;11936;50.820;4.336;2022-10-13T11:16:26;23.65;;;10.95;;
23519;SDS011;11936;50.820;4.336;2022-10-13T11:18:54;17.70;;;10.50;;
23519;SDS011;11936;50.820;4.336;2022-10-13T11:27:45;17.85;;;12.18;;
23519;SDS011;11936;50.820;4.336;2022-10-13T11:30:02;21.40;;;11.32;;
23519;SDS011;11936;50.820;4.336;2022-10-13T11:56:48;21.05;;;11.27;;
23519;SDS011;11936;50.820;4.336;2022-10-13T11:59:23;19.48;;;11.45;;
23519;SDS011;11936;50.820;4.336;2022-10-13T12:01:58;19.30;;;11.30;;
23519;SDS011;11936;50.820;4.336;2022-10-13T12:04:36;17.08;;;12.80;;
23519;SDS011;11936;50.820;4.336;2022-10-13T12:07:04;19.50;;;12.90;;
23519;SDS011;11936;50.820;4.336;2022-10-13T12:09:37;23.98;;;12.98;;
23519;SDS011;11936;50.820;4.336;2022-10-13T12:12:17;20.92;;;10.85;;
23519;SDS011;11936;50.820;4.336;2022-10-13T12:14:45;20.95;;;12.57;;
23519;SDS011;11936;50.820;4.336;2022-10-13T12:19:52;19.90;;;12.40;;
23519;SDS011;11936;50.820;4.336;2022-10-13T12:22:19;26.08;;;11.55;;
23519;SDS011;11936;50.820;4.336;2022-10-13T12:25:04;22.27;;;13.07;;
23519;SDS011;11936;50.820;4.336;2022-10-13T12:27:37;21.00;;;11.73;;
23519;SDS011;11936;50.820;4.336;2022-10-13T12:30:22;20.48;;;13.80;;
23519;SDS011;11936;50.820;4.336;2022-10-13T12:32:50;25.95;;;12.38;;
23519;SDS011;11936;50.820;4.336;2022-10-13T12:35:27;17.85;;;11.73;;
23519;SDS011;11936;50.820;4.336;2022-10-13T12:37:55;20.30;;;12.73;;
23519;SDS011;11936;50.820;4.336;2022-10-13T12:40:21;21.75;;;11.90;;
23519;SDS011;11936;50.820;4.336;2022-10-13T12:42:48;25.23;;;12.50;;
23519;SDS011;11936;50.820;4.336;2022-10-13T12:45:25;25.00;;;13.55;;
23519;SDS011;11936;50.820;4.336;2022-10-13T12:47:55;31.75;;;12.68;;
23519;SDS011;11936;50.820;4.336;2022-10-13T12:55:27;25.58;;;12.93;;
23519;SDS011;11936;50.820;4.336;2022-10-13T12:57:53;21.23;;;13.45;;
23519;SDS011;11936;50.820;4.336;2022-10-13T13:02:53;22.90;;;13.70;;
23519;SDS011;11936;50.820;4.336;2022-10-13T13:05:28;22.77;;;13.13;;
23519;SDS011;11936;50.820;4.336;2022-10-13T13:07:58;24.33;;;14.52;;
23519;SDS011;11936;50.820;4.336;2022-10-13T13:10:24;16.92;;;12.73;;
23519;SDS011;11936;50.820;4.336;2022-10-13T13:12:51;26.17;;;14.05;;
23519;SDS011;11936;50.820;4.336;2022-10-13T13:15:34;23.67;;;13.55;;
23519;SDS011;11936;50.820;4.336;2022-10-13T13:21:16;20.08;;;13.93;;
23519;SDS011;11936;50.820;4.336;2022-10-13T13:23:43;19.88;;;14.25;;
23519;SDS011;11936;50.820;4.336;2022-10-13T13:26:12;21.85;;;14.73;;
23519;SDS011;11936;50.820;4.336;2022-10-13T13:28:44;19.60;;;14.05;;
23519;SDS011;11936;50.820;4.336;2022-10-13T13:31:18;21.00;;;14.73;;
23519;SDS011;11936;50.820;4.336;2022-10-13T13:33:47;27.73;;;15.65;;
23519;SDS011;11936;50.820;4.336;2022-10-13T13:38:46;21.25;;;15.35;;
23519;SDS011;11936;50.820;4.336;2022-10-13T13:41:12;25.50;;;15.60;;
23519;SDS011;11936;50.820;4.336;2022-10-13T13:43:39;23.77;;;14.90;;
23519;SDS011;11936;50.820;4.336;2022-10-13T13:46:06;26.48;;;15.00;;
23519;SDS011;11936;50.820;4.336;2022-10-13T13:48:36;22.67;;;15.63;;
23519;SDS011;11936;50.820;4.336;2022-10-13T13:51:02;23.02;;;15.30;;
23519;SDS011;11936;50.820;4.336;2022-10-13T13:53:27;20.90;;;14.73;;
23519;SDS011;11936;50.820;4.336;2022-10-13T13:55:53;25.90;;;15.40;;
23519;SDS011;11936;50.820;4.336;2022-10-13T13:58:19;18.92;;;14.68;;
23519;SDS011;11936;50.820;4.336;2022-10-13T14:00:44;23.65;;;14.98;;
23519;SDS011;11936;50.820;4.336;2022-10-13T14:03:10;25.40;;;15.88;;
23519;SDS011;11936;50.820;4.336;2022-10-13T14:05:39;20.45;;;14.77;;
23519;SDS011;11936;50.820;4.336;2022-10-13T14:08:05;26.58;;;14.38;;
23519;SDS011;11936;50.820;4.336;2022-10-13T14:10:31;21.35;;;14.68;;
23519;SDS011;11936;50.820;4.336;2022-10-13T14:12:58;20.00;;;14.32;;
23519;SDS011;11936;50.820;4.336;2022-10-13T14:15:24;18.45;;;13.20;;
23519;SDS011;11936;50.820;4.336;2022-10-13T14:17:50;22.58;;;13.73;;
23519;SDS011;11936;50.820;4.336;2022-10-13T14:20:17;22.27;;;14.18;;
23519;SDS011;11936;50.820;4.336;2022-10-13T14:22:42;22.45;;;14.88;;
23519;SDS011;11936;50.820;4.336;2022-10-13T14:25:08;18.98;;;13.55;;
23519;SDS011;11936;50.820;4.336;2022-10-13T14:27:34;25.95;;;14.95;;
23519;SDS011;11936;50.820;4.336;2022-10-13T14:30:01;20.25;;;12.98;;
23519;SDS011;11936;50.820;4.336;2022-10-13T14:32:28;24.17;;;12.70;;
23519;SDS011;11936;50.820;4.336;2022-10-13T14:34:53;24.05;;;13.00;;
23519;SDS011;11936;50.820;4.336;2022-10-13T14:37:19;15.00;;;11.93;;
23519;SDS011;11936;50.820;4.336;2022-10-13T14:39:44;13.82;;;11.63;;
23519;SDS011;11936;50.820;4.336;2022-10-13T14:42:10;16.05;;;10.93;;
23519;SDS011;11936;50.820;4.336;2022-10-13T14:44:35;17.85;;;11.45;;
23519;SDS011;11936;50.820;4.336;2022-10-13T14:47:01;20.27;;;10.75;;
23519;SDS011;11936;50.820;4.336;2022-10-13T14:49:26;18.85;;;10.25;;
23519;SDS011;11936;50.820;4.336;2022-10-13T14:51:52;14.88;;;10.25;;
23519;SDS011;11936;50.820;4.336;2022-10-13T14:54:17;12.07;;;8.77;;
23519;SDS011;11936;50.820;4.336;2022-10-13T14:56:43;13.82;;;9.20;;
23519;SDS011;11936;50.820;4.336;2022-10-13T14:59:11;13.07;;;9.10;;
23519;SDS011;11936;50.820;4.336;2022-10-13T15:01:37;16.27;;;10.18;;
23519;SDS011;11936;50.820;4.336;2022-10-13T15:04:05;17.35;;;10.55;;
23519;SDS011;11936;50.820;4.336;2022-10-13T15:06:30;19.23;;;9.13;;
23519;SDS011;11936;50.820;4.336;2022-10-13T15:08:57;10.73;;;7.78;;
23519;SDS011;11936;50.820;4.336;2022-10-13T15:11:23;10.38;;;6.80;;
23519;SDS011;11936;50.820;4.336;2022-10-13T15:13:49;11.98;;;7.43;;
23519;SDS011;11936;50.820;4.336;2022-10-13T15:16:17;13.93;;;7.43;;
23519;SDS011;11936;50.820;4.336;2022-10-13T15:18:43;7.82;;;7.03;;
23519;SDS011;11936;50.820;4.336;2022-10-13T15:21:09;12.20;;;7.43;;
23519;SDS011;11936;50.820;4.336;2022-10-13T15:23:35;10.40;;;6.80;;
23519;SDS011;11936;50.820;4.336;2022-10-13T15:26:01;13.77;;;6.82;;
23519;SDS011;11936;50.820;4.336;2022-10-13T15:28:28;10.70;;;6.68;;
23519;SDS011;11936;50.820;4.336;2022-10-13T15:30:58;9.82;;;6.50;;
23519;SDS011;11936;50.820;4.336;2022-10-13T15:33:23;13.63;;;6.65;;
23519;SDS011;11936;50.820;4.336;2022-10-13T15:35:49;9.35;;;6.85;;
23519;SDS011;11936;50.820;4.336;2022-10-13T15:38:16;8.30;;;6.22;;
23519;SDS011;11936;50.820;4.336;2022-10-13T15:40:43;8.98;;;7.05;;
23519;SDS011;11936;50.820;4.336;2022-10-13T15:43:09;12.82;;;7.65;;
23519;SDS011;11936;50.820;4.336;2022-10-13T15:45:35;9.18;;;7.88;;
23519;SDS011;11936;50.820;4.336;2022-10-13T15:48:02;14.18;;;7.63;;
23519;SDS011;11936;50.820;4.336;2022-10-13T15:50:29;11.27;;;7.73;;
23519;SDS011;11936;50.820;4.336;2022-10-13T15:52:54;11.40;;;7.32;;
23519;SDS011;11936;50.820;4.336;2022-10-13T15:55:20;11.40;;;7.38;;
23519;SDS011;11936;50.820;4.336;2022-10-13T15:57:46;13.68;;;7.80;;
23519;SDS011;11936;50.820;4.336;2022-10-13T16:00:12;10.85;;;7.00;;
23519;SDS011;11936;50.820;4.336;2022-10-13T16:02:39;12.63;;;7.72;;
23519;SDS011;11936;50.820;4.336;2022-10-13T16:05:07;13.05;;;7.10;;
23519;SDS011;11936;50.820;4.336;2022-10-13T16:07:34;14.05;;;8.05;;
23519;SDS011;11936;50.820;4.336;2022-10-13T16:10:00;10.82;;;6.95;;
23519;SDS011;11936;50.820;4.336;2022-10-13T16:12:26;14.85;;;8.20;;
23519;SDS011;11936;50.820;4.336;2022-10-13T16:14:52;10.98;;;7.47;;
23519;SDS011;11936;50.820;4.336;2022-10-13T16:17:18;10.15;;;6.90;;
23519;SDS011;11936;50.820;4.336;2022-10-13T16:19:46;9.93;;;6.60;;
23519;SDS011;11936;50.820;4.336;2022-10-13T16:22:12;8.13;;;6.53;;
23519;SDS011;11936;50.820;4.336;2022-10-13T16:24:38;7.50;;;6.20;;
23519;SDS011;11936;50.820;4.336;2022-10-13T16:27:03;12.82;;;7.07;;
23519;SDS011;11936;50.820;4.336;2022-10-13T16:29:29;12.18;;;7.30;;
23519;SDS011;11936;50.820;4.336;2022-10-13T16:31:55;9.02;;;6.18;;
23519;SDS011;11936;50.820;4.336;2022-10-13T16:34:20;15.30;;;7.65;;
23519;SDS011;11936;50.820;4.336;2022-10-13T16:36:47;12.23;;;7.00;;
23519;SDS011;11936;50.820;4.336;2022-10-13T16:39:12;15.20;;;7.65;;
23519;SDS011;11936;50.820;4.336;2022-10-13T16:41:38;12.80;;;7.82;;
23519;SDS011;11936;50.820;4.336;2022-10-13T16:44:04;15.35;;;8.05;;
23519;SDS011;11936;50.820;4.336;2022-10-13T16:46:30;14.05;;;7.72;;
23519;SDS011;11936;50.820;4.336;2022-10-13T16:48:57;11.90;;;8.32;;
23519;SDS011;11936;50.820;4.336;2022-10-13T16:51:24;11.70;;;7.88;;
23519;SDS011;11936;50.820;4.336;2022-10-13T16:53:51;9.82;;;7.90;;
23519;SDS011;11936;50.820;4.336;2022-10-13T16:56:18;18.67;;;8.77;;
23519;SDS011;11936;50.820;4.336;2022-10-13T16:58:56;10.18;;;7.80;;